Time;durP1;ratioP1;P1;durP2;ratioP2;P2;SDS_P1;SDS_P2;PMS_P1;PMS_P2;Temp;Humidity;BMP_temperature;BMP_pressure;BME280_temperature;BME280_humidity;BME280_pressure;Samples;Min_cycle;Max_cycle;Signal;HPM_P1;HPM_P2
2023/05/14 00:02:07;;;;;;;15.30;8.98;;;;;;;;;;5013696;28;20106;-60
2023/05/14 00:04:33;;;;;;;17.73;9.88;;;;;;;;;;5015163;28;20099;-60
2023/05/14 00:06:59;;;;;;;18.25;9.93;;;;;;;;;;5012942;28;20503;-60
2023/05/14 00:09:26;;;;;;;14.82;10.88;;;;;;;;;;5015141;28;20510;-60
2023/05/14 00:11:52;;;;;;;17.42;10.65;;;;;;;;;;5011660;28;20049;-60
2023/05/14 00:14:18;;;;;;;15.05;10.07;;;;;;;;;;5010155;28;20034;-58
2023/05/14 00:16:44;;;;;;;16.10;9.82;;;;;;;;;;5012548;28;20154;-57
2023/05/14 00:19:10;;;;;;;14.88;9.88;;;;;;;;;;5013991;28;20145;-57
2023/05/14 00:21:36;;;;;;;18.70;10.98;;;;;;;;;;5010400;28;20434;-57
2023/05/14 00:24:02;;;;;;;19.95;12.38;;;;;;;;;;5013366;28;20042;-57
2023/05/14 00:26:28;;;;;;;19.40;9.55;;;;;;;;;;5011338;28;20041;-57
2023/05/14 00:28:54;;;;;;;16.45;10.85;;;;;;;;;;5012922;28;20045;-57
2023/05/14 00:31:20;;;;;;;16.42;10.38;;;;;;;;;;5011896;28;20133;-59
2023/05/14 00:33:46;;;;;;;17.35;9.65;;;;;;;;;;5012395;28;20135;-57
2023/05/14 00:36:12;;;;;;;9.93;7.68;;;;;;;;;;5013666;28;20034;-57
2023/05/14 00:38:39;;;;;;;16.42;10.70;;;;;;;;;;5006080;28;20045;-57
2023/05/14 00:41:05;;;;;;;16.50;7.97;;;;;;;;;;5009731;28;20042;-57
2023/05/14 00:43:32;;;;;;;16.08;9.15;;;;;;;;;;5027772;28;20046;-57
2023/05/14 00:45:58;;;;;;;17.33;10.75;;;;;;;;;;5013505;28;20073;-58
2023/05/14 00:48:24;;;;;;;17.05;10.98;;;;;;;;;;5044810;28;20492;-57
2023/05/14 00:50:51;;;;;;;21.67;11.65;;;;;;;;;;5019606;28;20054;-60
2023/05/14 00:53:20;;;;;;;16.77;9.50;;;;;;;;;;5015613;28;20170;-60
2023/05/14 00:55:46;;;;;;;15.60;10.05;;;;;;;;;;5013046;28;20100;-60
2023/05/14 00:58:13;;;;;;;15.48;11.90;;;;;;;;;;5012120;28;20141;-60
2023/05/14 01:00:40;;;;;;;16.73;10.35;;;;;;;;;;5009040;28;20443;-60
2023/05/14 01:03:06;;;;;;;19.58;13.13;;;;;;;;;;5012206;28;20038;-60
2023/05/14 01:05:51;;;;;;;15.85;10.98;;;;;;;;;;5014267;28;20560;-60
2023/05/14 01:08:20;;;;;;;16.10;10.98;;;;;;;;;;5028304;28;20601;-60
2023/05/14 01:10:51;;;;;;;19.45;12.07;;;;;;;;;;5012077;28;20100;-61
2023/05/14 01:13:19;;;;;;;15.52;9.82;;;;;;;;;;5009694;28;20528;-60
2023/05/14 01:15:47;;;;;;;16.63;11.55;;;;;;;;;;5012366;28;20042;-60
2023/05/14 01:18:15;;;;;;;14.32;9.10;;;;;;;;;;5010960;28;20129;-60
2023/05/14 01:20:43;;;;;;;18.77;11.45;;;;;;;;;;5009759;28;20053;-60
2023/05/14 01:23:09;;;;;;;14.57;8.30;;;;;;;;;;5009715;28;20052;-60
2023/05/14 01:25:35;;;;;;;16.30;10.50;;;;;;;;;;5006218;28;20447;-60
2023/05/14 01:28:01;;;;;;;16.73;10.93;;;;;;;;;;5011853;28;20050;-61
2023/05/14 01:30:30;;;;;;;17.42;11.55;;;;;;;;;;5011737;28;20065;-60
2023/05/14 01:32:59;;;;;;;15.05;8.23;;;;;;;;;;5012706;28;20789;-60
2023/05/14 01:35:27;;;;;;;17.88;11.23;;;;;;;;;;5013563;28;20342;-60
2023/05/14 01:37:56;;;;;;;17.23;10.77;;;;;;;;;;5008432;28;20170;-60
2023/05/14 01:40:23;;;;;;;21.80;11.85;;;;;;;;;;5008747;28;20042;-60
2023/05/14 01:42:53;;;;;;;15.68;10.63;;;;;;;;;;5011184;28;20073;-60
2023/05/14 01:45:25;;;;;;;17.20;11.65;;;;;;;;;;5012509;28;20081;-60
2023/05/14 01:47:51;;;;;;;22.35;11.50;;;;;;;;;;5012115;28;20137;-61
2023/05/14 01:50:17;;;;;;;15.57;9.57;;;;;;;;;;5013238;28;20062;-60
2023/05/14 01:52:43;;;;;;;19.98;12.10;;;;;;;;;;5005309;28;20042;-60
2023/05/14 01:55:10;;;;;;;18.83;8.90;;;;;;;;;;5012544;28;20045;-60
2023/05/14 01:57:36;;;;;;;10.98;7.93;;;;;;;;;;5006477;28;20046;-60
2023/05/14 02:00:03;;;;;;;18.17;11.48;;;;;;;;;;5012892;28;20085;-60
2023/05/14 02:02:29;;;;;;;17.92;11.88;;;;;;;;;;5007330;28;20038;-60
2023/05/14 02:04:55;;;;;;;16.85;11.25;;;;;;;;;;5011490;28;20564;-60
2023/05/14 02:07:21;;;;;;;17.58;10.70;;;;;;;;;;5009835;28;20030;-60
2023/05/14 02:09:47;;;;;;;17.25;11.77;;;;;;;;;;5011693;28;20089;-60
2023/05/14 02:12:13;;;;;;;18.02;10.40;;;;;;;;;;5010672;28;20046;-60
2023/05/14 02:14:39;;;;;;;17.02;9.65;;;;;;;;;;5011647;28;20038;-60
2023/05/14 02:17:05;;;;;;;15.68;10.85;;;;;;;;;;5011967;28;20654;-60
2023/05/14 02:19:31;;;;;;;17.42;10.95;;;;;;;;;;5011205;28;20046;-60
2023/05/14 02:21:59;;;;;;;13.95;7.95;;;;;;;;;;5044643;28;20081;-60
2023/05/14 02:24:25;;;;;;;19.88;11.25;;;;;;;;;;5031648;28;20191;-60
2023/05/14 02:26:51;;;;;;;21.73;13.32;;;;;;;;;;5010392;28;20569;-60
2023/05/14 02:29:17;;;;;;;18.45;11.32;;;;;;;;;;5010755;28;20042;-60
2023/05/14 02:31:43;;;;;;;19.30;11.30;;;;;;;;;;5006657;28;20643;-60
2023/05/14 02:34:09;;;;;;;23.00;12.50;;;;;;;;;;5006044;28;20058;-60
2023/05/14 02:36:35;;;;;;;22.48;10.85;;;;;;;;;;5011776;28;20050;-62
2023/05/14 02:39:03;;;;;;;20.25;11.48;;;;;;;;;;5013967;28;20132;-60
2023/05/14 02:41:29;;;;;;;23.10;11.88;;;;;;;;;;5013098;28;20097;-59
2023/05/14 02:43:55;;;;;;;17.08;11.80;;;;;;;;;;5013620;28;20053;-60
2023/05/14 02:46:21;;;;;;;17.15;10.63;;;;;;;;;;5014531;28;20128;-60
2023/05/14 02:48:47;;;;;;;18.08;11.77;;;;;;;;;;5041926;28;20050;-60
2023/05/14 02:51:15;;;;;;;16.80;12.50;;;;;;;;;;5013103;28;20073;-60
2023/05/14 02:53:41;;;;;;;21.10;11.93;;;;;;;;;;5007267;28;20046;-60
2023/05/14 02:56:07;;;;;;;22.33;13.02;;;;;;;;;;5013040;28;20037;-59
2023/05/14 02:58:33;;;;;;;22.73;15.00;;;;;;;;;;5015130;28;20045;-60
2023/05/14 03:00:59;;;;;;;22.45;11.93;;;;;;;;;;5006426;28;20077;-60
2023/05/14 03:03:25;;;;;;;20.38;13.68;;;;;;;;;;5013314;28;20544;-60
2023/05/14 03:05:51;;;;;;;17.92;12.45;;;;;;;;;;5012082;28;20608;-60
2023/05/14 03:08:17;;;;;;;19.35;12.45;;;;;;;;;;5015080;28;20088;-60
2023/05/14 03:10:43;;;;;;;18.80;11.90;;;;;;;;;;5012725;28;20471;-60
2023/05/14 03:13:10;;;;;;;23.13;13.70;;;;;;;;;;5016870;28;20116;-60
2023/05/14 03:15:36;;;;;;;24.13;13.45;;;;;;;;;;5012883;28;20062;-60
2023/05/14 03:18:02;;;;;;;18.40;12.00;;;;;;;;;;5008850;28;20127;-60
2023/05/14 03:20:28;;;;;;;19.30;13.10;;;;;;;;;;5013542;28;20551;-59
2023/05/14 03:22:55;;;;;;;23.58;13.55;;;;;;;;;;5004490;28;20072;-60
2023/05/14 03:25:21;;;;;;;19.90;13.55;;;;;;;;;;5013471;28;22080;-60
2023/05/14 03:27:47;;;;;;;23.05;12.90;;;;;;;;;;5012421;28;20053;-60
2023/05/14 03:30:13;;;;;;;18.85;10.77;;;;;;;;;;5027093;28;20197;-59
2023/05/14 03:32:40;;;;;;;19.08;13.40;;;;;;;;;;5014033;28;20042;-60
2023/05/14 03:35:06;;;;;;;19.92;11.57;;;;;;;;;;5014163;28;20070;-60
2023/05/14 03:37:32;;;;;;;30.70;16.33;;;;;;;;;;5015349;28;20092;-59
2023/05/14 03:39:59;;;;;;;16.42;11.93;;;;;;;;;;5013950;28;20042;-60
2023/05/14 03:42:25;;;;;;;21.08;13.43;;;;;;;;;;5015658;28;20408;-60
2023/05/14 03:44:52;;;;;;;18.25;9.85;;;;;;;;;;5014602;28;20056;-60
2023/05/14 03:47:18;;;;;;;27.80;14.25;;;;;;;;;;5016154;28;20598;-60
2023/05/14 03:49:44;;;;;;;21.08;12.80;;;;;;;;;;5012124;28;20044;-60
2023/05/14 03:52:10;;;;;;;25.05;14.98;;;;;;;;;;5014191;28;20050;-60
2023/05/14 03:54:37;;;;;;;22.15;12.90;;;;;;;;;;5015766;28;20120;-60
2023/05/14 03:57:03;;;;;;;12.13;7.78;;;;;;;;;;5013048;28;20536;-60
2023/05/14 03:59:29;;;;;;;22.30;11.68;;;;;;;;;;5015950;28;20524;-60
2023/05/14 04:01:55;;;;;;;20.83;12.35;;;;;;;;;;5014143;28;20093;-60
2023/05/14 04:04:21;;;;;;;23.85;14.27;;;;;;;;;;5047303;28;20048;-60
2023/05/14 04:06:47;;;;;;;22.83;13.25;;;;;;;;;;5014003;28;20057;-60
2023/05/14 04:09:13;;;;;;;29.10;15.27;;;;;;;;;;5011690;28;20096;-60
2023/05/14 04:11:39;;;;;;;20.35;14.45;;;;;;;;;;5045465;28;21088;-60
2023/05/14 04:14:06;;;;;;;21.55;14.27;;;;;;;;;;5015173;28;20049;-61
2023/05/14 04:16:32;;;;;;;31.67;14.80;;;;;;;;;;5012251;28;20046;-60
2023/05/14 04:18:58;;;;;;;23.27;15.15;;;;;;;;;;5011888;28;20046;-60
2023/05/14 04:21:24;;;;;;;26.60;15.07;;;;;;;;;;5011640;28;20041;-60
2023/05/14 04:23:50;;;;;;;22.58;14.20;;;;;;;;;;5010814;28;20054;-60
2023/05/14 04:26:17;;;;;;;24.60;13.77;;;;;;;;;;5010814;28;20038;-60
2023/05/14 04:28:43;;;;;;;22.75;15.60;;;;;;;;;;5005169;28;20556;-61
2023/05/14 04:31:09;;;;;;;18.05;11.35;;;;;;;;;;5008236;28;20200;-60
2023/05/14 04:33:35;;;;;;;23.40;14.23;;;;;;;;;;5013202;28;20114;-60
2023/05/14 04:36:01;;;;;;;20.45;12.80;;;;;;;;;;5012004;28;20049;-60
2023/05/14 04:38:27;;;;;;;20.45;14.13;;;;;;;;;;5011649;28;20229;-60
2023/05/14 04:40:53;;;;;;;22.27;12.77;;;;;;;;;;5012013;28;20042;-60
2023/05/14 04:43:19;;;;;;;14.43;9.15;;;;;;;;;;5011933;28;20517;-60
2023/05/14 04:45:45;;;;;;;21.60;13.77;;;;;;;;;;5009328;28;20058;-60
2023/05/14 04:48:11;;;;;;;26.85;15.77;;;;;;;;;;5013310;28;20038;-60
2023/05/14 04:50:38;;;;;;;31.10;16.02;;;;;;;;;;5013958;28;20050;-60
2023/05/14 04:53:04;;;;;;;25.02;15.23;;;;;;;;;;5011502;28;20181;-60
2023/05/14 04:55:30;;;;;;;26.63;16.15;;;;;;;;;;5015352;28;20038;-60
2023/05/14 04:57:56;;;;;;;18.52;11.90;;;;;;;;;;5012819;28;20555;-60
2023/05/14 05:00:22;;;;;;;23.75;15.50;;;;;;;;;;5011899;28;20878;-60
2023/05/14 05:02:48;;;;;;;24.42;15.68;;;;;;;;;;5009882;28;20507;-61
2023/05/14 05:05:14;;;;;;;26.63;14.20;;;;;;;;;;5009831;28;20481;-60
2023/05/14 05:07:40;;;;;;;17.02;10.60;;;;;;;;;;5012783;28;20116;-60
2023/05/14 05:10:07;;;;;;;18.85;12.10;;;;;;;;;;5014109;28;20116;-60
2023/05/14 05:12:34;;;;;;;21.50;11.18;;;;;;;;;;5011269;28;20057;-60
2023/05/14 05:15:00;;;;;;;25.17;15.65;;;;;;;;;;5011029;28;20793;-60
2023/05/14 05:17:26;;;;;;;20.60;12.82;;;;;;;;;;5009173;28;20572;-60
2023/05/14 05:19:52;;;;;;;23.75;14.77;;;;;;;;;;5011368;28;20045;-60
2023/05/14 05:22:19;;;;;;;20.02;14.43;;;;;;;;;;5003652;28;20593;-59
2023/05/14 05:24:45;;;;;;;24.48;15.38;;;;;;;;;;5012568;28;20100;-60
2023/05/14 05:27:11;;;;;;;21.83;14.20;;;;;;;;;;5010343;28;20093;-60
2023/05/14 05:29:37;;;;;;;23.52;14.48;;;;;;;;;;5014140;28;20046;-60
2023/05/14 05:32:03;;;;;;;24.88;16.30;;;;;;;;;;5011518;28;20042;-60
2023/05/14 05:34:30;;;;;;;23.92;14.32;;;;;;;;;;5010951;28;20550;-60
2023/05/14 05:36:56;;;;;;;24.17;15.63;;;;;;;;;;5009135;28;20047;-60
2023/05/14 05:39:22;;;;;;;26.83;14.43;;;;;;;;;;5011350;28;20191;-60
2023/05/14 05:41:48;;;;;;;25.58;10.95;;;;;;;;;;5012213;28;20042;-60
2023/05/14 05:44:14;;;;;;;26.45;14.85;;;;;;;;;;5013490;28;20054;-60
2023/05/14 05:46:40;;;;;;;24.55;15.43;;;;;;;;;;4989352;28;20511;-60
2023/05/14 05:49:06;;;;;;;28.08;16.30;;;;;;;;;;5026000;28;20926;-60
2023/05/14 05:51:32;;;;;;;30.38;19.02;;;;;;;;;;5014256;28;20053;-60
2023/05/14 05:53:58;;;;;;;13.65;9.45;;;;;;;;;;5017635;28;20101;-60
2023/05/14 05:56:24;;;;;;;11.98;9.13;;;;;;;;;;5016697;28;20041;-60
2023/05/14 05:58:50;;;;;;;22.77;14.70;;;;;;;;;;5016740;28;20535;-60
2023/05/14 06:01:17;;;;;;;26.33;15.85;;;;;;;;;;5010486;28;20146;-59
2023/05/14 06:03:43;;;;;;;26.02;15.85;;;;;;;;;;5015560;28;20658;-60
2023/05/14 06:06:09;;;;;;;19.27;12.23;;;;;;;;;;5015752;28;20042;-60
2023/05/14 06:08:35;;;;;;;27.92;17.55;;;;;;;;;;5032527;28;20065;-60
2023/05/14 06:11:01;;;;;;;28.65;16.90;;;;;;;;;;5014595;28;20273;-60
2023/05/14 06:13:27;;;;;;;28.27;16.10;;;;;;;;;;5015066;28;20086;-60
2023/05/14 06:15:53;;;;;;;28.35;15.98;;;;;;;;;;5017647;28;20045;-60
2023/05/14 06:18:19;;;;;;;22.88;13.90;;;;;;;;;;5017893;28;20042;-60
2023/05/14 06:20:45;;;;;;;20.20;15.48;;;;;;;;;;5017313;28;20052;-60
2023/05/14 06:23:11;;;;;;;19.80;10.82;;;;;;;;;;5017284;28;20082;-60
2023/05/14 06:25:37;;;;;;;27.60;16.23;;;;;;;;;;5016715;28;20502;-60
2023/05/14 06:28:04;;;;;;;26.15;14.65;;;;;;;;;;5016673;28;20580;-60
2023/05/14 06:30:30;;;;;;;31.70;17.65;;;;;;;;;;5016990;28;20041;-60
2023/05/14 06:32:56;;;;;;;32.47;18.85;;;;;;;;;;5016425;28;20046;-60
2023/05/14 06:35:23;;;;;;;27.08;14.98;;;;;;;;;;5013535;28;20037;-60
2023/05/14 06:37:49;;;;;;;24.90;15.57;;;;;;;;;;5012624;28;20042;-60
2023/05/14 06:40:15;;;;;;;25.45;16.30;;;;;;;;;;5011461;28;20033;-61
2023/05/14 06:42:41;;;;;;;27.83;16.20;;;;;;;;;;5017167;28;20053;-60
2023/05/14 06:45:07;;;;;;;27.27;16.25;;;;;;;;;;5047949;28;20073;-60
2023/05/14 06:47:33;;;;;;;21.23;12.57;;;;;;;;;;5016147;28;20128;-60
2023/05/14 06:50:00;;;;;;;29.95;15.45;;;;;;;;;;5013615;28;20073;-60
2023/05/14 06:52:26;;;;;;;28.80;17.08;;;;;;;;;;5016743;28;20056;-60
2023/05/14 06:54:52;;;;;;;26.95;15.43;;;;;;;;;;5017786;28;20096;-60
2023/05/14 06:57:18;;;;;;;28.40;16.00;;;;;;;;;;5015707;28;20038;-57
2023/05/14 06:59:45;;;;;;;21.10;10.88;;;;;;;;;;5015381;28;20575;-57
2023/05/14 07:02:11;;;;;;;29.20;18.23;;;;;;;;;;5015140;28;20582;-57
2023/05/14 07:04:37;;;;;;;30.42;17.35;;;;;;;;;;5015218;28;20052;-57
2023/05/14 07:07:04;;;;;;;30.98;16.55;;;;;;;;;;5015771;28;20044;-62
2023/05/14 07:09:30;;;;;;;28.55;16.92;;;;;;;;;;5013304;28;20468;-60
2023/05/14 07:11:56;;;;;;;28.02;17.40;;;;;;;;;;5014084;28;20439;-60
2023/05/14 07:14:23;;;;;;;19.52;12.88;;;;;;;;;;5016309;28;20038;-60
2023/05/14 07:16:49;;;;;;;23.95;17.15;;;;;;;;;;5013961;28;20049;-60
2023/05/14 07:19:15;;;;;;;33.00;16.27;;;;;;;;;;5015428;28;20038;-60
2023/05/14 07:21:41;;;;;;;29.95;17.02;;;;;;;;;;5016365;28;20531;-60
2023/05/14 07:24:07;;;;;;;33.47;18.95;;;;;;;;;;5015772;28;20872;-61
2023/05/14 07:26:33;;;;;;;28.85;18.15;;;;;;;;;;5014661;28;20069;-60
2023/05/14 07:28:59;;;;;;;27.45;16.38;;;;;;;;;;5013779;28;20038;-60
2023/05/14 07:31:25;;;;;;;30.00;17.25;;;;;;;;;;5013093;28;20058;-60
2023/05/14 07:33:51;;;;;;;26.88;16.73;;;;;;;;;;5013093;28;20092;-60
2023/05/14 07:36:18;;;;;;;28.70;17.27;;;;;;;;;;5015712;28;20096;-60
2023/05/14 07:38:44;;;;;;;30.20;15.82;;;;;;;;;;5016025;28;20038;-60
2023/05/14 07:41:11;;;;;;;27.40;15.15;;;;;;;;;;5013660;28;20346;-60
2023/05/14 07:43:37;;;;;;;24.67;13.73;;;;;;;;;;5011240;28;20571;-59
2023/05/14 07:46:04;;;;;;;29.48;17.02;;;;;;;;;;5012251;28;20096;-60
2023/05/14 07:48:30;;;;;;;27.63;17.30;;;;;;;;;;5020805;28;20543;-60
2023/05/14 07:50:56;;;;;;;25.80;17.13;;;;;;;;;;5014568;28;20050;-62
2023/05/14 07:53:23;;;;;;;27.85;16.70;;;;;;;;;;5016831;28;20034;-60
2023/05/14 07:55:50;;;;;;;27.77;17.40;;;;;;;;;;5016145;28;20046;-60
2023/05/14 07:58:16;;;;;;;28.08;19.02;;;;;;;;;;5015942;28;20038;-61
2023/05/14 08:00:42;;;;;;;32.47;17.35;;;;;;;;;;5012117;28;20046;-60
2023/05/14 08:03:08;;;;;;;32.95;15.70;;;;;;;;;;5012994;28;20049;-60
2023/05/14 08:05:35;;;;;;;26.73;14.70;;;;;;;;;;5044435;28;20045;-60
2023/05/14 08:08:01;;;;;;;29.45;16.52;;;;;;;;;;5015583;28;20422;-60
2023/05/14 08:10:27;;;;;;;28.77;16.73;;;;;;;;;;5012135;28;20098;-61
2023/05/14 08:12:53;;;;;;;23.60;14.13;;;;;;;;;;5013606;28;20038;-60
2023/05/14 08:15:19;;;;;;;38.13;18.77;;;;;;;;;;5011843;28;20046;-60
2023/05/14 08:17:45;;;;;;;28.08;14.60;;;;;;;;;;5006732;28;20037;-60
2023/05/14 08:20:12;;;;;;;30.67;16.90;;;;;;;;;;5014604;28;20045;-60
2023/05/14 08:22:38;;;;;;;31.65;19.42;;;;;;;;;;5014378;28;20539;-60
2023/05/14 08:25:05;;;;;;;34.13;19.15;;;;;;;;;;5015651;28;20069;-60
2023/05/14 08:27:31;;;;;;;35.28;20.55;;;;;;;;;;5045707;28;20045;-60
2023/05/14 08:29:57;;;;;;;33.13;18.33;;;;;;;;;;5014035;28;20173;-60
2023/05/14 08:32:23;;;;;;;36.70;16.95;;;;;;;;;;5017246;28;20041;-60
2023/05/14 08:34:50;;;;;;;26.02;13.82;;;;;;;;;;5014762;28;20041;-60
2023/05/14 08:37:16;;;;;;;25.65;14.05;;;;;;;;;;5013431;28;20034;-60
2023/05/14 08:39:42;;;;;;;29.45;20.15;;;;;;;;;;5012230;28;20045;-60
2023/05/14 08:42:11;;;;;;;28.83;15.98;;;;;;;;;;5013362;28;20963;-60
2023/05/14 08:44:56;;;;;;;35.33;17.23;;;;;;;;;;5044395;28;20513;-60
2023/05/14 08:47:23;;;;;;;24.20;14.18;;;;;;;;;;5013681;28;20077;-60
2023/05/14 08:49:52;;;;;;;32.28;20.13;;;;;;;;;;5013908;28;20042;-60
2023/05/14 08:52:20;;;;;;;29.85;18.90;;;;;;;;;;5015309;28;20046;-60
2023/05/14 08:54:46;;;;;;;24.92;14.27;;;;;;;;;;5014054;28;20048;-61
2023/05/14 08:57:12;;;;;;;33.78;18.98;;;;;;;;;;5013940;28;20041;-61
2023/05/14 08:59:38;;;;;;;29.52;17.27;;;;;;;;;;5013861;28;20861;-60
2023/05/14 09:02:05;;;;;;;23.40;14.02;;;;;;;;;;5015185;28;20044;-60
2023/05/14 09:04:31;;;;;;;28.40;16.48;;;;;;;;;;5015663;28;20034;-60
2023/05/14 09:06:59;;;;;;;25.73;15.32;;;;;;;;;;5014461;28;20532;-61
2023/05/14 09:09:25;;;;;;;29.23;17.90;;;;;;;;;;5014904;28;20042;-60
2023/05/14 09:11:52;;;;;;;39.13;18.63;;;;;;;;;;5011960;28;20171;-61
2023/05/14 09:14:19;;;;;;;31.58;19.05;;;;;;;;;;5015825;28;20041;-60
2023/05/14 09:16:46;;;;;;;20.35;11.80;;;;;;;;;;5013768;28;20042;-60
2023/05/14 09:19:12;;;;;;;19.58;11.32;;;;;;;;;;5011633;28;20083;-60
2023/05/14 09:21:39;;;;;;;24.42;15.32;;;;;;;;;;5014024;28;20041;-61
2023/05/14 09:24:05;;;;;;;30.50;16.85;;;;;;;;;;5014851;28;20046;-60
2023/05/14 09:26:32;;;;;;;30.70;17.73;;;;;;;;;;5012104;28;20089;-60
2023/05/14 09:29:02;;;;;;;32.80;18.08;;;;;;;;;;5011383;28;20054;-60
2023/05/14 09:31:32;;;;;;;30.02;17.88;;;;;;;;;;5010891;28;20130;-60
2023/05/14 09:33:59;;;;;;;32.08;18.35;;;;;;;;;;5013959;28;20042;-60
2023/05/14 09:36:26;;;;;;;25.42;15.48;;;;;;;;;;5014075;28;20558;-60
2023/05/14 09:39:03;;;;;;;27.80;15.05;;;;;;;;;;5014073;28;20045;-60
2023/05/14 09:41:29;;;;;;;26.25;17.17;;;;;;;;;;5007055;28;20053;-60
2023/05/14 09:43:56;;;;;;;31.38;17.40;;;;;;;;;;5012990;28;20598;-61
2023/05/14 09:46:22;;;;;;;27.67;17.52;;;;;;;;;;5044116;28;20096;-60
2023/05/14 09:48:49;;;;;;;25.20;17.25;;;;;;;;;;5012504;28;20671;-61
2023/05/14 09:51:19;;;;;;;26.95;18.00;;;;;;;;;;5007372;28;20042;-61
2023/05/14 09:53:46;;;;;;;27.75;17.38;;;;;;;;;;5013871;28;20038;-60
2023/05/14 09:56:12;;;;;;;28.95;17.83;;;;;;;;;;5010339;28;20117;-60
2023/05/14 09:58:38;;;;;;;31.70;18.83;;;;;;;;;;5013760;28;20487;-61
2023/05/14 10:01:05;;;;;;;29.05;17.33;;;;;;;;;;5045262;28;20096;-60
2023/05/14 10:03:32;;;;;;;26.58;16.98;;;;;;;;;;5013250;28;20042;-60
2023/05/14 10:06:00;;;;;;;24.83;15.45;;;;;;;;;;5012766;28;20050;-60
2023/05/14 10:08:35;;;;;;;25.13;17.17;;;;;;;;;;5010867;28;20038;-60
2023/05/14 10:11:04;;;;;;;23.48;15.23;;;;;;;;;;5012077;28;20050;-60
2023/05/14 10:13:32;;;;;;;20.85;12.07;;;;;;;;;;5013311;28;20098;-60
2023/05/14 10:16:06;;;;;;;21.55;14.27;;;;;;;;;;5013663;28;20083;-60
2023/05/14 10:18:35;;;;;;;22.75;15.40;;;;;;;;;;5012462;28;20050;-60
2023/05/14 10:21:05;;;;;;;24.45;15.82;;;;;;;;;;5011373;28;20049;-60
2023/05/14 10:23:31;;;;;;;25.88;16.13;;;;;;;;;;5009193;28;20602;-60
2023/05/14 10:25:58;;;;;;;26.67;15.45;;;;;;;;;;5012646;28;20073;-60
2023/05/14 10:28:24;;;;;;;22.38;15.38;;;;;;;;;;5013466;28;20081;-60
2023/05/14 10:30:50;;;;;;;14.75;10.73;;;;;;;;;;5013875;28;20410;-60
2023/05/14 10:33:17;;;;;;;17.30;10.45;;;;;;;;;;5012053;28;20038;-60
2023/05/14 10:35:56;;;;;;;25.90;17.55;;;;;;;;;;5011166;28;20114;-61
2023/05/14 10:38:26;;;;;;;21.10;13.65;;;;;;;;;;5014381;28;20052;-61
2023/05/14 10:40:54;;;;;;;22.45;15.27;;;;;;;;;;5009078;28;20363;-61
2023/05/14 10:43:20;;;;;;;26.55;15.13;;;;;;;;;;5032040;28;20547;-61
2023/05/14 10:45:47;;;;;;;21.20;13.43;;;;;;;;;;5011947;28;20046;-60
2023/05/14 10:48:13;;;;;;;21.70;15.40;;;;;;;;;;5017325;28;20411;-60
2023/05/14 10:50:39;;;;;;;23.70;15.35;;;;;;;;;;5013289;28;20042;-60
2023/05/14 10:53:05;;;;;;;26.40;14.90;;;;;;;;;;5016912;28;20046;-61
2023/05/14 10:55:31;;;;;;;21.52;15.05;;;;;;;;;;5010424;28;20216;-61
2023/05/14 10:58:00;;;;;;;22.60;14.23;;;;;;;;;;5016455;28;20045;-60
2023/05/14 11:00:26;;;;;;;22.10;13.00;;;;;;;;;;5015527;28;20561;-60
2023/05/14 11:02:55;;;;;;;19.98;13.50;;;;;;;;;;5015893;28;20648;-61
2023/05/14 11:05:22;;;;;;;22.38;13.98;;;;;;;;;;5015743;28;20081;-60
2023/05/14 11:07:49;;;;;;;22.27;15.43;;;;;;;;;;5016855;28;20080;-61
2023/05/14 11:10:16;;;;;;;22.55;13.95;;;;;;;;;;5016755;28;20566;-61
2023/05/14 11:12:43;;;;;;;20.35;14.85;;;;;;;;;;5049731;28;20046;-60
2023/05/14 11:15:10;;;;;;;23.40;15.73;;;;;;;;;;5016693;28;20635;-62
2023/05/14 11:17:37;;;;;;;25.17;14.40;;;;;;;;;;5015242;28;20046;-60
2023/05/14 11:20:06;;;;;;;20.25;15.55;;;;;;;;;;5048172;28;20844;-60
2023/05/14 11:22:33;;;;;;;19.90;13.82;;;;;;;;;;5017136;28;20049;-60
2023/05/14 11:24:59;;;;;;;20.80;13.98;;;;;;;;;;5015087;28;20069;-60
2023/05/14 11:27:25;;;;;;;18.40;12.77;;;;;;;;;;5016430;28;20141;-60
2023/05/14 11:29:51;;;;;;;20.58;14.13;;;;;;;;;;5014106;28;20535;-60
2023/05/14 11:32:18;;;;;;;19.13;14.40;;;;;;;;;;5015091;28;20857;-61
2023/05/14 11:34:44;;;;;;;26.52;16.45;;;;;;;;;;5016791;28;20052;-60
2023/05/14 11:37:14;;;;;;;17.00;13.07;;;;;;;;;;5049386;28;20042;-60
2023/05/14 11:39:46;;;;;;;18.33;13.57;;;;;;;;;;5015726;28;20044;-60
2023/05/14 11:42:13;;;;;;;16.58;10.50;;;;;;;;;;5016583;28;20046;-60
2023/05/14 11:44:40;;;;;;;19.35;10.43;;;;;;;;;;5015659;28;20042;-57
2023/05/14 11:47:06;;;;;;;13.68;10.35;;;;;;;;;;5017663;28;20072;-57
2023/05/14 11:49:34;;;;;;;18.00;13.70;;;;;;;;;;5014115;28;20038;-57
2023/05/14 11:52:01;;;;;;;19.05;12.60;;;;;;;;;;5031828;28;20056;-57
2023/05/14 11:54:28;;;;;;;14.50;9.15;;;;;;;;;;5017405;28;20073;-57
2023/05/14 11:56:55;;;;;;;18.27;10.15;;;;;;;;;;5017041;28;20652;-57
2023/05/14 11:59:23;;;;;;;13.00;10.52;;;;;;;;;;5013924;28;20042;-57
2023/05/14 12:01:51;;;;;;;11.13;8.05;;;;;;;;;;5015485;28;20084;-57
2023/05/14 12:04:21;;;;;;;18.67;10.85;;;;;;;;;;5016061;28;20044;-57
2023/05/14 12:06:47;;;;;;;17.60;11.02;;;;;;;;;;5013991;28;20042;-57
2023/05/14 12:09:15;;;;;;;16.02;9.35;;;;;;;;;;5015540;28;20037;-57
2023/05/14 12:11:41;;;;;;;23.05;10.95;;;;;;;;;;5015981;28;20049;-57
2023/05/14 12:14:20;;;;;;;16.17;9.45;;;;;;;;;;5046260;28;20042;-57
2023/05/14 12:16:46;;;;;;;13.48;10.25;;;;;;;;;;5015118;28;20117;-58
2023/05/14 12:19:16;;;;;;;13.77;10.27;;;;;;;;;;5015184;28;20452;-57
2023/05/14 12:21:44;;;;;;;15.32;10.90;;;;;;;;;;5013893;28;20034;-58
2023/05/14 12:24:11;;;;;;;13.88;10.63;;;;;;;;;;5015944;28;20050;-57
2023/05/14 12:26:38;;;;;;;16.80;10.02;;;;;;;;;;5014693;28;20065;-57
2023/05/14 12:29:07;;;;;;;15.13;9.43;;;;;;;;;;5016522;28;20058;-58
2023/05/14 12:31:35;;;;;;;16.17;9.68;;;;;;;;;;5014236;28;20042;-57
2023/05/14 12:34:01;;;;;;;18.25;10.55;;;;;;;;;;5030430;28;20103;-57
2023/05/14 12:36:28;;;;;;;14.50;8.95;;;;;;;;;;5025549;28;20116;-57
2023/05/14 12:39:00;;;;;;;13.50;8.95;;;;;;;;;;5014395;28;21750;-58
2023/05/14 12:41:27;;;;;;;10.50;5.10;;;;;;;;;;5013285;28;20049;-57
2023/05/14 12:43:53;;;;;;;16.30;9.77;;;;;;;;;;5015424;28;20045;-57
2023/05/14 12:46:19;;;;;;;10.50;8.60;;;;;;;;;;5013044;28;20066;-57
2023/05/14 12:48:45;;;;;;;14.98;8.63;;;;;;;;;;5015115;28;20061;-57
2023/05/14 12:51:12;;;;;;;10.27;8.18;;;;;;;;;;5011853;28;20084;-57
2023/05/14 12:53:39;;;;;;;14.30;8.60;;;;;;;;;;5008611;28;20611;-58
2023/05/14 12:56:05;;;;;;;12.65;10.00;;;;;;;;;;5014937;28;20516;-57
2023/05/14 12:58:31;;;;;;;19.25;8.70;;;;;;;;;;5015162;28;20042;-57
2023/05/14 13:00:57;;;;;;;15.75;9.10;;;;;;;;;;5013287;28;20041;-57
2023/05/14 13:03:24;;;;;;;12.27;8.68;;;;;;;;;;5015157;28;20196;-57
2023/05/14 13:05:53;;;;;;;13.13;9.20;;;;;;;;;;5013712;28;20494;-57
2023/05/14 13:08:23;;;;;;;12.27;9.15;;;;;;;;;;5014742;28;20084;-57
2023/05/14 13:10:49;;;;;;;14.75;8.18;;;;;;;;;;5044012;28;22013;-57
2023/05/14 13:13:15;;;;;;;12.45;8.50;;;;;;;;;;5014264;28;20113;-57
2023/05/14 13:15:42;;;;;;;17.73;8.93;;;;;;;;;;5011999;28;20543;-57
2023/05/14 13:18:08;;;;;;;10.18;7.28;;;;;;;;;;5013000;28;20049;-58
2023/05/14 13:20:34;;;;;;;15.77;9.00;;;;;;;;;;5012840;28;20262;-58
2023/05/14 13:23:00;;;;;;;13.80;8.18;;;;;;;;;;5009072;28;20138;-57
2023/05/14 13:25:26;;;;;;;14.13;9.02;;;;;;;;;;5014800;28;20049;-58
2023/05/14 13:27:53;;;;;;;11.52;8.02;;;;;;;;;;5013561;28;20045;-57
2023/05/14 13:30:19;;;;;;;5.72;4.40;;;;;;;;;;5015337;28;20849;-57
2023/05/14 13:32:45;;;;;;;11.55;7.95;;;;;;;;;;5015224;28;20472;-57
2023/05/14 13:35:11;;;;;;;11.52;7.38;;;;;;;;;;5013652;28;20046;-57
2023/05/14 13:37:38;;;;;;;11.77;7.75;;;;;;;;;;5014508;28;20775;-57
2023/05/14 13:40:07;;;;;;;11.30;7.03;;;;;;;;;;5012005;28;20073;-57
2023/05/14 13:42:33;;;;;;;14.30;7.88;;;;;;;;;;5016382;28;20050;-57
2023/05/14 13:45:00;;;;;;;12.65;8.23;;;;;;;;;;5012553;28;20065;-57
2023/05/14 13:47:26;;;;;;;10.63;7.57;;;;;;;;;;5014115;28;20096;-57
2023/05/14 13:49:58;;;;;;;8.43;6.90;;;;;;;;;;5013088;28;20125;-58
2023/05/14 13:52:25;;;;;;;12.70;9.55;;;;;;;;;;5013200;28;20574;-58
2023/05/14 13:54:52;;;;;;;11.27;6.50;;;;;;;;;;5013927;28;20043;-57
2023/05/14 13:57:18;;;;;;;13.73;8.65;;;;;;;;;;5011753;28;20053;-57
2023/05/14 13:59:46;;;;;;;10.98;6.90;;;;;;;;;;5014003;28;20096;-57
2023/05/14 14:02:12;;;;;;;18.10;8.93;;;;;;;;;;5012800;28;20049;-58
2023/05/14 14:04:38;;;;;;;12.07;7.22;;;;;;;;;;5014401;28;20053;-57
2023/05/14 14:07:04;;;;;;;12.50;8.38;;;;;;;;;;5010413;28;20038;-57
2023/05/14 14:09:33;;;;;;;11.70;6.35;;;;;;;;;;5013026;28;20034;-57
2023/05/14 14:12:00;;;;;;;12.07;7.88;;;;;;;;;;5014220;28;20057;-57
2023/05/14 14:14:27;;;;;;;11.63;7.60;;;;;;;;;;5016911;28;20124;-57
2023/05/14 14:16:53;;;;;;;11.63;7.53;;;;;;;;;;5016600;28;20038;-57